createdAt,value
2018-08-19T00:04:22.532Z,20.8
2018-08-19T00:19:54.822Z,20.6
2018-08-19T00:35:14.460Z,20.5
2018-08-19T00:50:32.856Z,20.29
2018-08-19T01:05:51.466Z,20.29
2018-08-19T01:21:00.406Z,20
2018-08-19T01:36:28.894Z,20.2
2018-08-19T01:51:46.862Z,20
2018-08-19T02:07:05.669Z,20.1
2018-08-19T02:22:24.268Z,19.9
2018-08-19T02:37:37.647Z,20
2018-08-19T02:53:00.810Z,19.9
2018-08-19T03:08:19.343Z,19.79
2018-08-19T03:23:37.545Z,19.6
2018-08-19T03:38:43.236Z,19.29
2018-08-19T03:54:14.161Z,19.2
2018-08-19T04:09:31.793Z,19
2018-08-19T04:24:50.007Z,19.1
2018-08-19T04:40:08.214Z,18.79
2018-08-19T04:55:19.099Z,18.9
2018-08-19T05:10:44.455Z,19.1
2018-08-19T05:26:02.252Z,19.4
2018-08-19T05:41:20.862Z,19.6
2018-08-19T05:56:25.832Z,19.9
2018-08-19T06:11:57.462Z,21.1
2018-08-19T06:27:17.244Z,22.3
2018-08-19T06:42:37.107Z,23
2018-08-19T06:57:45.113Z,22.6
2018-08-19T07:13:16.029Z,22.9
2018-08-19T07:28:35.693Z,23.3
2018-08-19T07:43:56.322Z,23.8
2018-08-19T07:59:07.219Z,24
2018-08-19T08:14:36.608Z,24.3
2018-08-19T08:29:56.965Z,24.8
2018-08-19T08:45:17.921Z,25.4
2018-08-19T09:00:26.561Z,26.1
2018-08-19T09:16:00.361Z,26.5
2018-08-19T09:31:21.878Z,27.1
2018-08-19T09:46:44.162Z,28.1
2018-08-19T10:01:47.296Z,28.8
2018-08-19T10:17:23.102Z,29.6
2018-08-19T10:32:52.550Z,30.1
2018-08-19T10:48:16.326Z,30.2
2018-08-19T11:03:40.785Z,30.5
2018-08-19T11:18:45.531Z,30.9
2018-08-19T11:34:22.295Z,31.1
2018-08-19T11:49:55.617Z,31.5
2018-08-19T12:05:21.369Z,31.8
2018-08-19T12:20:47.130Z,32.09
2018-08-19T12:36:14.719Z,32.09
2018-08-19T12:51:25.129Z,32.5
2018-08-19T13:07:02.526Z,33.09
2018-08-19T13:22:37.125Z,33.5
2018-08-19T13:38:05.156Z,32.5
2018-08-19T13:53:29.727Z,32.09
2018-08-19T14:08:54.738Z,32.4
2018-08-19T14:24:06.726Z,32.8
2018-08-19T14:39:44.428Z,33.2
2018-08-19T14:55:13.711Z,33.4
2018-08-19T15:10:40.395Z,33.3
2018-08-19T15:26:07.302Z,33.4
2018-08-19T15:41:12.521Z,32.9
2018-08-19T15:56:49.820Z,32.2
2018-08-19T16:12:26.357Z,32.09
2018-08-19T16:27:51.847Z,31.7
2018-08-19T16:43:16.796Z,31.6
2018-08-19T16:58:41.861Z,31.4
2018-08-19T17:13:50.853Z,31.1
2018-08-19T17:29:27.072Z,30.7
2018-08-19T17:44:56.975Z,30.3
2018-08-19T18:00:21.230Z,29.7
2018-08-19T18:15:45.765Z,29.2
2018-08-19T18:31:07.917Z,28.7
2018-08-19T18:46:23.662Z,28.3
2018-08-19T19:01:53.597Z,27.9
2018-08-19T19:17:15.953Z,27.6
2018-08-19T19:32:37.140Z,27.2
2018-08-19T19:47:59.552Z,26.7
2018-08-19T20:03:13.578Z,26.4
2018-08-19T20:18:42.091Z,26
2018-08-19T20:34:02.775Z,25.4
2018-08-19T20:49:24.021Z,25
2018-08-19T21:04:44.397Z,24.6
2018-08-19T21:19:59.672Z,24.4
2018-08-19T21:35:25.787Z,24.4
2018-08-19T21:50:46.251Z,24.2
2018-08-19T22:06:06.672Z,24.1
2018-08-19T22:21:10.685Z,23.9
2018-08-19T22:36:43.347Z,23.7
2018-08-19T22:52:08.941Z,23.5
2018-08-19T23:07:27.988Z,23.4
2018-08-19T23:22:49.067Z,23.2
2018-08-19T23:37:52.548Z,23.1
2018-08-19T23:53:25.346Z,22.8
